sensor_id;sensor_type;location;lat;lon;timestamp;P1;durP1;ratioP1;P2;durP2;ratioP2
56517;SDS011;42419;48.760;2.322;2023-04-06T00:02:02;5.20;;;4.70;;
56517;SDS011;42419;48.760;2.322;2023-04-06T00:04:27;6.90;;;4.60;;
56517;SDS011;42419;48.760;2.322;2023-04-06T00:06:52;6.30;;;5.17;;
56517;SDS011;42419;48.760;2.322;2023-04-06T00:09:18;6.30;;;4.90;;
56517;SDS011;42419;48.760;2.322;2023-04-06T00:11:43;5.27;;;4.30;;
56517;SDS011;42419;48.760;2.322;2023-04-06T00:14:08;6.77;;;5.13;;
56517;SDS011;42419;48.760;2.322;2023-04-06T00:16:34;5.53;;;4.80;;
56517;SDS011;42419;48.760;2.322;2023-04-06T00:18:59;5.80;;;4.40;;
56517;SDS011;42419;48.760;2.322;2023-04-06T00:21:24;5.40;;;4.60;;
56517;SDS011;42419;48.760;2.322;2023-04-06T00:23:50;4.60;;;4.17;;
56517;SDS011;42419;48.760;2.322;2023-04-06T00:26:16;5.73;;;5.13;;
56517;SDS011;42419;48.760;2.322;2023-04-06T00:28:41;5.60;;;4.70;;
56517;SDS011;42419;48.760;2.322;2023-04-06T00:31:06;7.03;;;5.23;;
56517;SDS011;42419;48.760;2.322;2023-04-06T00:33:32;4.40;;;4.00;;
56517;SDS011;42419;48.760;2.322;2023-04-06T00:35:57;7.50;;;5.40;;
56517;SDS011;42419;48.760;2.322;2023-04-06T00:38:22;5.73;;;4.37;;
56517;SDS011;42419;48.760;2.322;2023-04-06T00:40:48;5.80;;;4.80;;
56517;SDS011;42419;48.760;2.322;2023-04-06T00:43:13;7.97;;;4.70;;
56517;SDS011;42419;48.760;2.322;2023-04-06T00:45:39;5.43;;;4.77;;
56517;SDS011;42419;48.760;2.322;2023-04-06T00:48:06;5.23;;;4.30;;
56517;SDS011;42419;48.760;2.322;2023-04-06T00:50:32;6.00;;;4.10;;
56517;SDS011;42419;48.760;2.322;2023-04-06T00:52:58;4.97;;;4.47;;
56517;SDS011;42419;48.760;2.322;2023-04-06T00:55:23;4.47;;;4.07;;
56517;SDS011;42419;48.760;2.322;2023-04-06T00:57:49;4.73;;;4.23;;
56517;SDS011;42419;48.760;2.322;2023-04-06T01:00:15;4.73;;;4.13;;
56517;SDS011;42419;48.760;2.322;2023-04-06T01:02:41;5.90;;;3.80;;
56517;SDS011;42419;48.760;2.322;2023-04-06T01:05:07;5.27;;;4.40;;
56517;SDS011;42419;48.760;2.322;2023-04-06T01:07:32;5.37;;;4.27;;
56517;SDS011;42419;48.760;2.322;2023-04-06T01:09:58;4.50;;;3.80;;
56517;SDS011;42419;48.760;2.322;2023-04-06T01:12:24;5.23;;;4.27;;
56517;SDS011;42419;48.760;2.322;2023-04-06T01:14:49;4.43;;;3.67;;
56517;SDS011;42419;48.760;2.322;2023-04-06T01:17:15;5.57;;;4.20;;
56517;SDS011;42419;48.760;2.322;2023-04-06T01:19:40;5.43;;;4.33;;
56517;SDS011;42419;48.760;2.322;2023-04-06T01:22:06;4.10;;;3.63;;
56517;SDS011;42419;48.760;2.322;2023-04-06T01:24:32;4.93;;;4.43;;
56517;SDS011;42419;48.760;2.322;2023-04-06T01:26:57;5.00;;;4.50;;
56517;SDS011;42419;48.760;2.322;2023-04-06T01:29:23;4.57;;;4.00;;
56517;SDS011;42419;48.760;2.322;2023-04-06T01:31:48;4.50;;;4.10;;
56517;SDS011;42419;48.760;2.322;2023-04-06T01:34:13;4.47;;;3.93;;
56517;SDS011;42419;48.760;2.322;2023-04-06T01:36:39;7.20;;;4.60;;
56517;SDS011;42419;48.760;2.322;2023-04-06T01:39:04;4.30;;;3.90;;
56517;SDS011;42419;48.760;2.322;2023-04-06T01:41:30;3.80;;;3.40;;
56517;SDS011;42419;48.760;2.322;2023-04-06T01:43:55;5.40;;;4.60;;
56517;SDS011;42419;48.760;2.322;2023-04-06T01:46:20;4.30;;;3.87;;
56517;SDS011;42419;48.760;2.322;2023-04-06T01:48:45;4.93;;;4.40;;
56517;SDS011;42419;48.760;2.322;2023-04-06T01:51:11;5.40;;;4.50;;
56517;SDS011;42419;48.760;2.322;2023-04-06T01:53:36;3.90;;;3.60;;
56517;SDS011;42419;48.760;2.322;2023-04-06T01:56:01;5.27;;;4.77;;
56517;SDS011;42419;48.760;2.322;2023-04-06T01:58:27;4.60;;;4.13;;
56517;SDS011;42419;48.760;2.322;2023-04-06T02:00:52;4.63;;;4.20;;
56517;SDS011;42419;48.760;2.322;2023-04-06T02:03:17;5.77;;;4.70;;
56517;SDS011;42419;48.760;2.322;2023-04-06T02:05:43;5.00;;;4.30;;
56517;SDS011;42419;48.760;2.322;2023-04-06T02:08:08;4.50;;;4.10;;
56517;SDS011;42419;48.760;2.322;2023-04-06T02:10:34;5.00;;;4.13;;
56517;SDS011;42419;48.760;2.322;2023-04-06T02:13:00;4.40;;;4.00;;
56517;SDS011;42419;48.760;2.322;2023-04-06T02:15:26;4.23;;;3.83;;
56517;SDS011;42419;48.760;2.322;2023-04-06T02:17:52;4.87;;;4.33;;
56517;SDS011;42419;48.760;2.322;2023-04-06T02:20:17;4.20;;;3.67;;
56517;SDS011;42419;48.760;2.322;2023-04-06T02:22:43;5.00;;;4.10;;
56517;SDS011;42419;48.760;2.322;2023-04-06T02:25:08;5.03;;;4.20;;
56517;SDS011;42419;48.760;2.322;2023-04-06T02:27:34;4.20;;;3.90;;
56517;SDS011;42419;48.760;2.322;2023-04-06T02:30:01;5.80;;;4.20;;
56517;SDS011;42419;48.760;2.322;2023-04-06T02:32:26;4.40;;;4.00;;
56517;SDS011;42419;48.760;2.322;2023-04-06T02:34:52;5.83;;;4.10;;
56517;SDS011;42419;48.760;2.322;2023-04-06T02:37:17;4.60;;;3.50;;
56517;SDS011;42419;48.760;2.322;2023-04-06T02:39:42;4.67;;;4.17;;
56517;SDS011;42419;48.760;2.322;2023-04-06T02:42:08;4.60;;;4.20;;
56517;SDS011;42419;48.760;2.322;2023-04-06T02:44:33;4.30;;;3.90;;
56517;SDS011;42419;48.760;2.322;2023-04-06T02:46:59;3.97;;;3.67;;
56517;SDS011;42419;48.760;2.322;2023-04-06T02:49:24;4.03;;;3.40;;
56517;SDS011;42419;48.760;2.322;2023-04-06T02:51:50;4.03;;;3.63;;
56517;SDS011;42419;48.760;2.322;2023-04-06T02:54:15;5.87;;;4.70;;
56517;SDS011;42419;48.760;2.322;2023-04-06T02:56:40;5.50;;;4.10;;
56517;SDS011;42419;48.760;2.322;2023-04-06T02:59:05;4.23;;;3.83;;
56517;SDS011;42419;48.760;2.322;2023-04-06T03:01:31;4.20;;;3.80;;
56517;SDS011;42419;48.760;2.322;2023-04-06T03:03:56;4.43;;;4.03;;
56517;SDS011;42419;48.760;2.322;2023-04-06T03:06:22;3.70;;;3.40;;
56517;SDS011;42419;48.760;2.322;2023-04-06T03:08:47;4.00;;;3.70;;
56517;SDS011;42419;48.760;2.322;2023-04-06T03:11:12;5.90;;;4.30;;
56517;SDS011;42419;48.760;2.322;2023-04-06T03:13:38;5.47;;;4.27;;
56517;SDS011;42419;48.760;2.322;2023-04-06T03:16:04;4.63;;;3.60;;
56517;SDS011;42419;48.760;2.322;2023-04-06T03:18:30;4.70;;;3.60;;
56517;SDS011;42419;48.760;2.322;2023-04-06T03:20:55;3.33;;;3.03;;
56517;SDS011;42419;48.760;2.322;2023-04-06T03:23:20;3.53;;;3.23;;
56517;SDS011;42419;48.760;2.322;2023-04-06T03:25:46;3.97;;;3.67;;
56517;SDS011;42419;48.760;2.322;2023-04-06T03:28:11;3.80;;;3.40;;
56517;SDS011;42419;48.760;2.322;2023-04-06T03:30:37;5.30;;;4.03;;
56517;SDS011;42419;48.760;2.322;2023-04-06T03:33:02;4.77;;;4.03;;
56517;SDS011;42419;48.760;2.322;2023-04-06T03:35:27;3.97;;;3.57;;
56517;SDS011;42419;48.760;2.322;2023-04-06T03:37:53;4.00;;;3.70;;
56517;SDS011;42419;48.760;2.322;2023-04-06T03:40:18;6.13;;;4.70;;
56517;SDS011;42419;48.760;2.322;2023-04-06T03:42:43;4.33;;;3.93;;
56517;SDS011;42419;48.760;2.322;2023-04-06T03:45:09;4.40;;;3.80;;
56517;SDS011;42419;48.760;2.322;2023-04-06T03:47:34;4.43;;;4.03;;
56517;SDS011;42419;48.760;2.322;2023-04-06T03:50:00;4.80;;;3.93;;
56517;SDS011;42419;48.760;2.322;2023-04-06T03:52:25;5.33;;;3.97;;
56517;SDS011;42419;48.760;2.322;2023-04-06T03:54:51;3.80;;;3.47;;
56517;SDS011;42419;48.760;2.322;2023-04-06T03:57:16;4.40;;;3.97;;
56517;SDS011;42419;48.760;2.322;2023-04-06T03:59:41;4.53;;;3.77;;
56517;SDS011;42419;48.760;2.322;2023-04-06T04:02:07;4.57;;;3.20;;
56517;SDS011;42419;48.760;2.322;2023-04-06T04:04:32;4.27;;;3.80;;
56517;SDS011;42419;48.760;2.322;2023-04-06T04:06:57;4.53;;;3.90;;
56517;SDS011;42419;48.760;2.322;2023-04-06T04:09:23;3.67;;;3.37;;
56517;SDS011;42419;48.760;2.322;2023-04-06T04:11:48;4.00;;;3.60;;
56517;SDS011;42419;48.760;2.322;2023-04-06T04:14:13;4.07;;;3.67;;
56517;SDS011;42419;48.760;2.322;2023-04-06T04:16:39;4.53;;;3.80;;
56517;SDS011;42419;48.760;2.322;2023-04-06T04:19:06;4.63;;;4.10;;
56517;SDS011;42419;48.760;2.322;2023-04-06T04:21:31;3.90;;;3.60;;
56517;SDS011;42419;48.760;2.322;2023-04-06T04:23:56;4.30;;;3.90;;
56517;SDS011;42419;48.760;2.322;2023-04-06T04:26:22;4.23;;;3.70;;
56517;SDS011;42419;48.760;2.322;2023-04-06T04:28:47;4.80;;;3.90;;
56517;SDS011;42419;48.760;2.322;2023-04-06T04:31:13;4.60;;;4.07;;
56517;SDS011;42419;48.760;2.322;2023-04-06T04:33:38;3.80;;;3.50;;
56517;SDS011;42419;48.760;2.322;2023-04-06T04:36:03;4.33;;;3.73;;
56517;SDS011;42419;48.760;2.322;2023-04-06T04:38:29;9.17;;;4.20;;
56517;SDS011;42419;48.760;2.322;2023-04-06T04:40:54;4.20;;;3.80;;
56517;SDS011;42419;48.760;2.322;2023-04-06T04:43:19;5.37;;;4.00;;
56517;SDS011;42419;48.760;2.322;2023-04-06T04:45:45;4.07;;;3.67;;
56517;SDS011;42419;48.760;2.322;2023-04-06T04:48:10;4.23;;;3.83;;
56517;SDS011;42419;48.760;2.322;2023-04-06T04:50:35;4.17;;;3.87;;
56517;SDS011;42419;48.760;2.322;2023-04-06T04:53:01;4.00;;;3.70;;
56517;SDS011;42419;48.760;2.322;2023-04-06T04:55:27;4.47;;;4.07;;
56517;SDS011;42419;48.760;2.322;2023-04-06T04:57:52;7.07;;;3.73;;
56517;SDS011;42419;48.760;2.322;2023-04-06T05:00:18;4.37;;;3.60;;
56517;SDS011;42419;48.760;2.322;2023-04-06T05:02:43;6.23;;;3.77;;
56517;SDS011;42419;48.760;2.322;2023-04-06T05:05:09;4.40;;;3.63;;
56517;SDS011;42419;48.760;2.322;2023-04-06T05:07:34;4.50;;;3.33;;
56517;SDS011;42419;48.760;2.322;2023-04-06T05:09:59;4.70;;;3.90;;
56517;SDS011;42419;48.760;2.322;2023-04-06T05:12:25;3.40;;;3.10;;
56517;SDS011;42419;48.760;2.322;2023-04-06T05:14:52;4.30;;;3.73;;
56517;SDS011;42419;48.760;2.322;2023-04-06T05:17:18;3.97;;;3.60;;
56517;SDS011;42419;48.760;2.322;2023-04-06T05:19:43;3.40;;;3.10;;
56517;SDS011;42419;48.760;2.322;2023-04-06T05:22:09;4.80;;;3.63;;
56517;SDS011;42419;48.760;2.322;2023-04-06T05:24:34;3.50;;;3.20;;
56517;SDS011;42419;48.760;2.322;2023-04-06T05:27:00;5.33;;;3.53;;
56517;SDS011;42419;48.760;2.322;2023-04-06T05:29:25;5.17;;;3.50;;
56517;SDS011;42419;48.760;2.322;2023-04-06T05:31:51;5.70;;;3.67;;
56517;SDS011;42419;48.760;2.322;2023-04-06T05:34:16;7.00;;;3.40;;
56517;SDS011;42419;48.760;2.322;2023-04-06T05:36:41;4.90;;;4.00;;
56517;SDS011;42419;48.760;2.322;2023-04-06T05:39:07;3.50;;;3.20;;
56517;SDS011;42419;48.760;2.322;2023-04-06T05:41:32;4.20;;;3.80;;
56517;SDS011;42419;48.760;2.322;2023-04-06T05:43:58;4.23;;;3.40;;
56517;SDS011;42419;48.760;2.322;2023-04-06T05:46:23;4.57;;;3.60;;
56517;SDS011;42419;48.760;2.322;2023-04-06T05:48:48;3.57;;;3.13;;
56517;SDS011;42419;48.760;2.322;2023-04-06T05:51:14;4.03;;;2.83;;
56517;SDS011;42419;48.760;2.322;2023-04-06T05:53:39;3.80;;;3.40;;
56517;SDS011;42419;48.760;2.322;2023-04-06T05:56:05;6.53;;;3.90;;
56517;SDS011;42419;48.760;2.322;2023-04-06T05:58:31;3.93;;;3.60;;
56517;SDS011;42419;48.760;2.322;2023-04-06T06:00:57;3.70;;;3.00;;
56517;SDS011;42419;48.760;2.322;2023-04-06T06:03:23;3.70;;;3.40;;
56517;SDS011;42419;48.760;2.322;2023-04-06T06:05:48;3.60;;;3.30;;
56517;SDS011;42419;48.760;2.322;2023-04-06T06:08:14;3.70;;;3.20;;
56517;SDS011;42419;48.760;2.322;2023-04-06T06:10:39;4.00;;;3.40;;
56517;SDS011;42419;48.760;2.322;2023-04-06T06:13:05;4.00;;;3.60;;
56517;SDS011;42419;48.760;2.322;2023-04-06T06:15:30;3.50;;;3.20;;
56517;SDS011;42419;48.760;2.322;2023-04-06T06:17:55;4.33;;;3.93;;
56517;SDS011;42419;48.760;2.322;2023-04-06T06:20:21;5.73;;;3.60;;
56517;SDS011;42419;48.760;2.322;2023-04-06T06:22:46;3.83;;;3.37;;
56517;SDS011;42419;48.760;2.322;2023-04-06T06:25:12;3.80;;;3.50;;
56517;SDS011;42419;48.760;2.322;2023-04-06T06:27:37;4.87;;;3.60;;
56517;SDS011;42419;48.760;2.322;2023-04-06T06:30:03;4.43;;;3.17;;
56517;SDS011;42419;48.760;2.322;2023-04-06T06:32:29;3.17;;;2.87;;
56517;SDS011;42419;48.760;2.322;2023-04-06T06:34:54;8.10;;;3.47;;
56517;SDS011;42419;48.760;2.322;2023-04-06T06:37:19;3.40;;;3.10;;
56517;SDS011;42419;48.760;2.322;2023-04-06T06:39:45;6.47;;;3.13;;
56517;SDS011;42419;48.760;2.322;2023-04-06T06:42:10;4.30;;;3.10;;
56517;SDS011;42419;48.760;2.322;2023-04-06T06:44:35;3.83;;;3.13;;
56517;SDS011;42419;48.760;2.322;2023-04-06T06:47:00;6.10;;;3.13;;
56517;SDS011;42419;48.760;2.322;2023-04-06T06:49:26;3.70;;;3.27;;
56517;SDS011;42419;48.760;2.322;2023-04-06T06:51:51;3.20;;;2.90;;
56517;SDS011;42419;48.760;2.322;2023-04-06T06:54:16;3.43;;;3.13;;
56517;SDS011;42419;48.760;2.322;2023-04-06T06:56:42;4.53;;;3.53;;
56517;SDS011;42419;48.760;2.322;2023-04-06T06:59:07;3.77;;;3.00;;
56517;SDS011;42419;48.760;2.322;2023-04-06T07:01:32;3.80;;;3.50;;
56517;SDS011;42419;48.760;2.322;2023-04-06T07:03:58;3.80;;;3.40;;
56517;SDS011;42419;48.760;2.322;2023-04-06T07:06:24;4.90;;;3.60;;
56517;SDS011;42419;48.760;2.322;2023-04-06T07:08:49;4.57;;;2.90;;
56517;SDS011;42419;48.760;2.322;2023-04-06T07:11:15;3.80;;;3.50;;
56517;SDS011;42419;48.760;2.322;2023-04-06T07:13:41;3.63;;;3.30;;
56517;SDS011;42419;48.760;2.322;2023-04-06T07:16:07;3.50;;;2.60;;
56517;SDS011;42419;48.760;2.322;2023-04-06T07:18:32;3.73;;;3.33;;
56517;SDS011;42419;48.760;2.322;2023-04-06T07:20:58;3.80;;;3.50;;
56517;SDS011;42419;48.760;2.322;2023-04-06T07:23:23;3.80;;;3.40;;
56517;SDS011;42419;48.760;2.322;2023-04-06T07:25:48;3.60;;;3.30;;
56517;SDS011;42419;48.760;2.322;2023-04-06T07:28:16;3.73;;;3.43;;
56517;SDS011;42419;48.760;2.322;2023-04-06T07:30:41;3.23;;;2.83;;
56517;SDS011;42419;48.760;2.322;2023-04-06T07:33:07;3.90;;;2.97;;
56517;SDS011;42419;48.760;2.322;2023-04-06T07:35:33;3.80;;;3.30;;
56517;SDS011;42419;48.760;2.322;2023-04-06T07:37:59;3.70;;;3.40;;
56517;SDS011;42419;48.760;2.322;2023-04-06T07:40:25;4.00;;;3.23;;
56517;SDS011;42419;48.760;2.322;2023-04-06T07:42:51;3.40;;;3.10;;
56517;SDS011;42419;48.760;2.322;2023-04-06T07:45:17;4.13;;;3.40;;
56517;SDS011;42419;48.760;2.322;2023-04-06T07:47:43;4.50;;;3.23;;
56517;SDS011;42419;48.760;2.322;2023-04-06T07:50:08;5.23;;;3.60;;
56517;SDS011;42419;48.760;2.322;2023-04-06T07:52:35;4.40;;;3.43;;
56517;SDS011;42419;48.760;2.322;2023-04-06T07:55:00;4.20;;;2.90;;
56517;SDS011;42419;48.760;2.322;2023-04-06T07:57:25;5.13;;;3.70;;
56517;SDS011;42419;48.760;2.322;2023-04-06T07:59:51;3.73;;;3.43;;
56517;SDS011;42419;48.760;2.322;2023-04-06T08:02:16;3.70;;;3.40;;
56517;SDS011;42419;48.760;2.322;2023-04-06T08:04:42;3.63;;;3.33;;
56517;SDS011;42419;48.760;2.322;2023-04-06T08:07:08;3.93;;;3.53;;
56517;SDS011;42419;48.760;2.322;2023-04-06T08:09:33;5.10;;;3.73;;
56517;SDS011;42419;48.760;2.322;2023-04-06T08:11:58;4.40;;;3.90;;
56517;SDS011;42419;48.760;2.322;2023-04-06T08:14:24;4.07;;;3.60;;
56517;SDS011;42419;48.760;2.322;2023-04-06T08:16:49;3.93;;;3.43;;
56517;SDS011;42419;48.760;2.322;2023-04-06T08:19:14;4.60;;;3.77;;
56517;SDS011;42419;48.760;2.322;2023-04-06T08:21:42;3.77;;;3.40;;
56517;SDS011;42419;48.760;2.322;2023-04-06T08:24:07;3.67;;;3.33;;
56517;SDS011;42419;48.760;2.322;2023-04-06T08:26:33;4.37;;;3.70;;
56517;SDS011;42419;48.760;2.322;2023-04-06T08:28:58;3.30;;;3.00;;
56517;SDS011;42419;48.760;2.322;2023-04-06T08:31:23;3.93;;;3.20;;
56517;SDS011;42419;48.760;2.322;2023-04-06T08:33:49;4.00;;;3.57;;
56517;SDS011;42419;48.760;2.322;2023-04-06T08:36:14;3.87;;;3.57;;
56517;SDS011;42419;48.760;2.322;2023-04-06T08:38:41;3.60;;;3.30;;
56517;SDS011;42419;48.760;2.322;2023-04-06T08:41:11;4.17;;;3.77;;
56517;SDS011;42419;48.760;2.322;2023-04-06T08:43:57;4.37;;;3.97;;
56517;SDS011;42419;48.760;2.322;2023-04-06T08:46:28;4.27;;;3.50;;
56517;SDS011;42419;48.760;2.322;2023-04-06T08:48:55;4.03;;;3.70;;
56517;SDS011;42419;48.760;2.322;2023-04-06T08:51:25;4.17;;;3.77;;
56517;SDS011;42419;48.760;2.322;2023-04-06T08:53:52;3.70;;;3.40;;
56517;SDS011;42419;48.760;2.322;2023-04-06T08:56:19;4.40;;;3.90;;
56517;SDS011;42419;48.760;2.322;2023-04-06T08:58:46;4.30;;;4.00;;
56517;SDS011;42419;48.760;2.322;2023-04-06T09:01:13;4.90;;;3.83;;
56517;SDS011;42419;48.760;2.322;2023-04-06T09:03:40;3.83;;;3.53;;
56517;SDS011;42419;48.760;2.322;2023-04-06T09:06:07;4.40;;;3.63;;
56517;SDS011;42419;48.760;2.322;2023-04-06T09:08:34;3.50;;;3.13;;
56517;SDS011;42419;48.760;2.322;2023-04-06T09:11:01;3.60;;;3.30;;
56517;SDS011;42419;48.760;2.322;2023-04-06T09:13:27;4.73;;;4.20;;
56517;SDS011;42419;48.760;2.322;2023-04-06T09:16:00;3.40;;;3.20;;
56517;SDS011;42419;48.760;2.322;2023-04-06T09:18:32;4.40;;;3.97;;
56517;SDS011;42419;48.760;2.322;2023-04-06T09:23:27;3.50;;;3.20;;
56517;SDS011;42419;48.760;2.322;2023-04-06T09:26:06;4.13;;;3.83;;
56517;SDS011;42419;48.760;2.322;2023-04-06T09:31:10;5.57;;;4.20;;
56517;SDS011;42419;48.760;2.322;2023-04-06T09:33:37;4.80;;;3.50;;
56517;SDS011;42419;48.760;2.322;2023-04-06T09:36:05;4.20;;;3.33;;
56517;SDS011;42419;48.760;2.322;2023-04-06T09:38:32;3.73;;;3.43;;
56517;SDS011;42419;48.760;2.322;2023-04-06T09:40:57;3.50;;;3.20;;
56517;SDS011;42419;48.760;2.322;2023-04-06T09:43:23;5.40;;;3.53;;
56517;SDS011;42419;48.760;2.322;2023-04-06T09:45:50;3.80;;;3.43;;
56517;SDS011;42419;48.760;2.322;2023-04-06T09:48:15;3.13;;;2.90;;
56517;SDS011;42419;48.760;2.322;2023-04-06T09:50:41;3.43;;;3.13;;
56517;SDS011;42419;48.760;2.322;2023-04-06T09:53:07;3.43;;;3.13;;
56517;SDS011;42419;48.760;2.322;2023-04-06T09:55:42;3.60;;;3.30;;
56517;SDS011;42419;48.760;2.322;2023-04-06T09:58:13;3.77;;;3.47;;
56517;SDS011;42419;48.760;2.322;2023-04-06T10:00:48;3.57;;;3.23;;
56517;SDS011;42419;48.760;2.322;2023-04-06T10:03:21;3.60;;;3.30;;
56517;SDS011;42419;48.760;2.322;2023-04-06T10:05:57;8.40;;;3.20;;
56517;SDS011;42419;48.760;2.322;2023-04-06T10:08:27;3.50;;;3.00;;
56517;SDS011;42419;48.760;2.322;2023-04-06T10:10:54;3.80;;;3.40;;
56517;SDS011;42419;48.760;2.322;2023-04-06T10:13:20;3.07;;;2.73;;
56517;SDS011;42419;48.760;2.322;2023-04-06T10:15:46;2.93;;;2.73;;
56517;SDS011;42419;48.760;2.322;2023-04-06T10:18:12;3.20;;;2.93;;
56517;SDS011;42419;48.760;2.322;2023-04-06T10:20:41;3.43;;;3.13;;
56517;SDS011;42419;48.760;2.322;2023-04-06T10:23:35;4.03;;;3.33;;
56517;SDS011;42419;48.760;2.322;2023-04-06T10:26:01;3.47;;;3.03;;
56517;SDS011;42419;48.760;2.322;2023-04-06T10:28:31;2.90;;;2.70;;
56517;SDS011;42419;48.760;2.322;2023-04-06T10:30:59;2.90;;;2.70;;
56517;SDS011;42419;48.760;2.322;2023-04-06T10:33:26;2.70;;;2.47;;
56517;SDS011;42419;48.760;2.322;2023-04-06T10:35:52;3.30;;;3.00;;
56517;SDS011;42419;48.760;2.322;2023-04-06T10:38:18;3.13;;;2.87;;
56517;SDS011;42419;48.760;2.322;2023-04-06T10:40:47;3.03;;;2.70;;
56517;SDS011;42419;48.760;2.322;2023-04-06T10:43:19;2.47;;;2.27;;
56517;SDS011;42419;48.760;2.322;2023-04-06T10:45:53;3.07;;;2.77;;
56517;SDS011;42419;48.760;2.322;2023-04-06T10:48:20;3.33;;;3.03;;
56517;SDS011;42419;48.760;2.322;2023-04-06T10:50:50;3.00;;;2.70;;
56517;SDS011;42419;48.760;2.322;2023-04-06T10:53:23;3.20;;;2.60;;
56517;SDS011;42419;48.760;2.322;2023-04-06T10:55:53;3.47;;;3.00;;
56517;SDS011;42419;48.760;2.322;2023-04-06T10:58:20;3.20;;;2.90;;
56517;SDS011;42419;48.760;2.322;2023-04-06T11:00:49;3.50;;;2.23;;
56517;SDS011;42419;48.760;2.322;2023-04-06T11:03:15;2.90;;;2.70;;
56517;SDS011;42419;48.760;2.322;2023-04-06T11:05:45;2.60;;;2.40;;
56517;SDS011;42419;48.760;2.322;2023-04-06T11:08:27;4.00;;;2.80;;
56517;SDS011;42419;48.760;2.322;2023-04-06T11:13:44;2.43;;;2.23;;
56517;SDS011;42419;48.760;2.322;2023-04-06T11:16:15;2.83;;;2.60;;
56517;SDS011;42419;48.760;2.322;2023-04-06T11:22:06;3.00;;;2.70;;
56517;SDS011;42419;48.760;2.322;2023-04-06T11:26:39;2.60;;;2.40;;
56517;SDS011;42419;48.760;2.322;2023-04-06T11:29:06;2.50;;;2.20;;
56517;SDS011;42419;48.760;2.322;2023-04-06T11:31:37;2.63;;;2.43;;
56517;SDS011;42419;48.760;2.322;2023-04-06T11:34:08;2.37;;;2.17;;
56517;SDS011;42419;48.760;2.322;2023-04-06T11:36:35;3.50;;;2.00;;
56517;SDS011;42419;48.760;2.322;2023-04-06T11:39:02;2.77;;;2.43;;
56517;SDS011;42419;48.760;2.322;2023-04-06T11:41:28;2.27;;;2.07;;
56517;SDS011;42419;48.760;2.322;2023-04-06T11:43:55;2.63;;;2.43;;
56517;SDS011;42419;48.760;2.322;2023-04-06T11:46:20;2.40;;;2.20;;
56517;SDS011;42419;48.760;2.322;2023-04-06T11:48:46;2.47;;;2.27;;
56517;SDS011;42419;48.760;2.322;2023-04-06T11:51:11;2.80;;;2.23;;
56517;SDS011;42419;48.760;2.322;2023-04-06T11:53:44;2.77;;;2.40;;
56517;SDS011;42419;48.760;2.322;2023-04-06T11:56:22;2.63;;;2.43;;
56517;SDS011;42419;48.760;2.322;2023-04-06T11:58:48;1.80;;;1.70;;
56517;SDS011;42419;48.760;2.322;2023-04-06T12:01:14;2.10;;;1.90;;
56517;SDS011;42419;48.760;2.322;2023-04-06T12:03:39;2.10;;;1.90;;
56517;SDS011;42419;48.760;2.322;2023-04-06T12:06:04;2.23;;;1.93;;
56517;SDS011;42419;48.760;2.322;2023-04-06T12:08:30;2.50;;;2.30;;
56517;SDS011;42419;48.760;2.322;2023-04-06T12:10:55;2.57;;;1.97;;
56517;SDS011;42419;48.760;2.322;2023-04-06T12:13:20;2.40;;;2.20;;
56517;SDS011;42419;48.760;2.322;2023-04-06T12:15:46;2.37;;;2.00;;
56517;SDS011;42419;48.760;2.322;2023-04-06T12:18:11;2.37;;;2.07;;
56517;SDS011;42419;48.760;2.322;2023-04-06T12:20:36;2.30;;;2.10;;
56517;SDS011;42419;48.760;2.322;2023-04-06T12:23:02;2.00;;;1.80;;
56517;SDS011;42419;48.760;2.322;2023-04-06T12:25:27;2.33;;;2.10;;
56517;SDS011;42419;48.760;2.322;2023-04-06T12:27:52;3.40;;;1.90;;
56517;SDS011;42419;48.760;2.322;2023-04-06T12:30:18;2.43;;;2.10;;
56517;SDS011;42419;48.760;2.322;2023-04-06T12:32:43;1.97;;;1.73;;
56517;SDS011;42419;48.760;2.322;2023-04-06T12:35:08;2.10;;;1.90;;
56517;SDS011;42419;48.760;2.322;2023-04-06T12:37:34;1.80;;;1.70;;
56517;SDS011;42419;48.760;2.322;2023-04-06T12:39:59;2.67;;;2.10;;
56517;SDS011;42419;48.760;2.322;2023-04-06T12:42:25;2.03;;;1.77;;
56517;SDS011;42419;48.760;2.322;2023-04-06T12:44:51;2.40;;;2.00;;
56517;SDS011;42419;48.760;2.322;2023-04-06T12:47:16;2.10;;;1.90;;
56517;SDS011;42419;48.760;2.322;2023-04-06T12:49:43;2.10;;;1.90;;
56517;SDS011;42419;48.760;2.322;2023-04-06T12:52:08;2.27;;;2.07;;
56517;SDS011;42419;48.760;2.322;2023-04-06T12:54:34;2.87;;;1.97;;
56517;SDS011;42419;48.760;2.322;2023-04-06T12:56:59;2.33;;;1.93;;
56517;SDS011;42419;48.760;2.322;2023-04-06T12:59:25;2.20;;;2.00;;
56517;SDS011;42419;48.760;2.322;2023-04-06T13:01:51;2.07;;;1.87;;
56517;SDS011;42419;48.760;2.322;2023-04-06T13:04:17;2.57;;;1.83;;
56517;SDS011;42419;48.760;2.322;2023-04-06T13:06:42;2.50;;;1.90;;
56517;SDS011;42419;48.760;2.322;2023-04-06T13:09:08;2.10;;;1.87;;
56517;SDS011;42419;48.760;2.322;2023-04-06T13:11:33;2.20;;;1.60;;
56517;SDS011;42419;48.760;2.322;2023-04-06T13:13:58;2.60;;;1.90;;
56517;SDS011;42419;48.760;2.322;2023-04-06T13:16:24;1.90;;;1.80;;
56517;SDS011;42419;48.760;2.322;2023-04-06T13:18:49;2.07;;;1.80;;
56517;SDS011;42419;48.760;2.322;2023-04-06T13:21:15;3.07;;;1.87;;
56517;SDS011;42419;48.760;2.322;2023-04-06T13:23:41;2.03;;;1.77;;
56517;SDS011;42419;48.760;2.322;2023-04-06T13:26:06;2.17;;;1.97;;
56517;SDS011;42419;48.760;2.322;2023-04-06T13:28:33;2.17;;;1.90;;
56517;SDS011;42419;48.760;2.322;2023-04-06T13:31:00;1.77;;;1.63;;
56517;SDS011;42419;48.760;2.322;2023-04-06T13:33:27;2.10;;;1.87;;
56517;SDS011;42419;48.760;2.322;2023-04-06T13:35:52;3.97;;;2.10;;
56517;SDS011;42419;48.760;2.322;2023-04-06T13:38:18;2.13;;;1.93;;
56517;SDS011;42419;48.760;2.322;2023-04-06T13:40:43;2.07;;;1.80;;
56517;SDS011;42419;48.760;2.322;2023-04-06T13:43:09;2.10;;;1.87;;
56517;SDS011;42419;48.760;2.322;2023-04-06T13:45:35;1.80;;;1.70;;
56517;SDS011;42419;48.760;2.322;2023-04-06T13:48:00;2.20;;;1.80;;
56517;SDS011;42419;48.760;2.322;2023-04-06T13:50:26;2.37;;;1.70;;
56517;SDS011;42419;48.760;2.322;2023-04-06T13:52:52;1.60;;;1.50;;
56517;SDS011;42419;48.760;2.322;2023-04-06T13:55:17;2.20;;;1.60;;
56517;SDS011;42419;48.760;2.322;2023-04-06T13:57:42;1.93;;;1.67;;
56517;SDS011;42419;48.760;2.322;2023-04-06T14:00:08;2.63;;;1.60;;
56517;SDS011;42419;48.760;2.322;2023-04-06T14:02:36;2.40;;;1.80;;
56517;SDS011;42419;48.760;2.322;2023-04-06T14:05:01;2.80;;;1.60;;
56517;SDS011;42419;48.760;2.322;2023-04-06T14:07:27;1.97;;;1.73;;
56517;SDS011;42419;48.760;2.322;2023-04-06T14:09:52;2.03;;;1.53;;
56517;SDS011;42419;48.760;2.322;2023-04-06T14:12:17;2.27;;;1.57;;
56517;SDS011;42419;48.760;2.322;2023-04-06T14:14:43;2.20;;;2.00;;
56517;SDS011;42419;48.760;2.322;2023-04-06T14:17:08;1.80;;;1.67;;
56517;SDS011;42419;48.760;2.322;2023-04-06T14:19:33;2.47;;;1.87;;
56517;SDS011;42419;48.760;2.322;2023-04-06T14:21:59;3.30;;;1.67;;
56517;SDS011;42419;48.760;2.322;2023-04-06T14:24:25;1.80;;;1.67;;
56517;SDS011;42419;48.760;2.322;2023-04-06T14:26:50;3.30;;;1.73;;
56517;SDS011;42419;48.760;2.322;2023-04-06T14:29:15;2.30;;;1.77;;
56517;SDS011;42419;48.760;2.322;2023-04-06T14:31:41;2.63;;;1.80;;
56517;SDS011;42419;48.760;2.322;2023-04-06T14:34:06;4.07;;;1.63;;
56517;SDS011;42419;48.760;2.322;2023-04-06T14:36:32;1.73;;;1.60;;
56517;SDS011;42419;48.760;2.322;2023-04-06T14:39:05;2.30;;;1.40;;
56517;SDS011;42419;48.760;2.322;2023-04-06T14:41:32;2.10;;;1.80;;
56517;SDS011;42419;48.760;2.322;2023-04-06T14:43:58;2.50;;;1.70;;
56517;SDS011;42419;48.760;2.322;2023-04-06T14:46:24;2.23;;;1.80;;
56517;SDS011;42419;48.760;2.322;2023-04-06T14:48:50;3.30;;;1.93;;
56517;SDS011;42419;48.760;2.322;2023-04-06T14:51:15;2.57;;;2.13;;
56517;SDS011;42419;48.760;2.322;2023-04-06T14:53:41;1.87;;;1.63;;
56517;SDS011;42419;48.760;2.322;2023-04-06T14:56:07;1.93;;;1.70;;